National Weather Service United States Department of Commerce

High Winds Creating Critical Fire Weather Threats in California; Heavy Rains Along Gulf Coast

Strong to high winds are creating critical fire weather conditions across much of California, and explosive fire growth in Southern California. Wind gradients gradually weaken Sunday and through mid next week. Conversely, very wet conditions will develop this week as week along the Gulf Coast; and unsettled weather pattern to the north with snow from the Great Basin to the High Plains. Read More >

                                       ZTL Airspace Summary / KAHN TAF                    For ATC Planning Purposes Only
ZTL Airspace Summary:
High pressure will dominate ZTL with VFR conditions under SCT/BKN cirrus clouds. Surface winds will be northwest to south at 3-10kts. Flight Hazards: LGT-MOD turbulence above 150 over all ZTL, improving over AL/GA by 00z. LGT-MOD Turbulence below 120 over VA until 21z.

Updated:12/16/2017 12:35 PM
 

Athens Terminal Aerodrome Forecast:
 
FTUS52 KAHN 161730
KAHN 161727Z 1618/1718 28004KT P6SM SCT250
     FM170100 00000KT P6SM SCT250
     FM171300 16003KT P6SM FEW070 SCT150 BKN250
     FM171700 17003KT P6SM SCT040 BKN100

 

AHN METAR:  
SAUS70 KAHN 162200
METAR KAHN 162151Z 00000KT 10SM CLR 11/M04 A3023 RMK AO2 SLP241
     T01061039

Go to KAHN TAF TDA
Go to KAHN TAF TDA

 
AHN TRACON HAZARDS
AHN TRACON: SFC-12000
AVG CIG BASE WHERE REPORTED BLW 10000FT: NONE REPORTED
LOWEST REPORTED CIG: NONE REPORTED
LOWEST REPORTED FLIGHT CAT: VFR
METARS:
K3J7 162155Z AUTO 00000KT 10SM CLR 11/M01 A3021 RMK AO2
KWDR 162155Z AUTO 26003KT 10SM CLR 11/M05 A3025 RMK AO1
KAHN 162151Z 00000KT 10SM CLR 11/M04 A3023 RMK AO2 SLP241 T01061039

AHN TRACON HAZARD

Forecast Surface Map Loop / Collaborative Convective Forecast Product / Vertical Wind Profile
Weather Map

 

AIRMETs & SIGMETS/ Southeast Radar loop / Satellite Image (click on image to enlarge)
Weather Map Southeast Radar Loop

satellite

2